Time;durP1;ratioP1;P1;durP2;ratioP2;P2;SDS_P1;SDS_P2;PMS_P1;PMS_P2;Temp;Humidity;BMP_temperature;BMP_pressure;BME280_temperature;BME280_humidity;BME280_pressure;Samples;Min_cycle;Max_cycle;Signal;HPM_P1;HPM_P2
2021/03/08 00:02:19;;;;;;;0.20;0.20;;;8.20;99.90;;;;;;5082026;28;20031;-90
2021/03/08 00:04:45;;;;;;;0.13;0.13;;;8.20;99.90;;;;;;5090806;28;20040;-89
2021/03/08 00:07:11;;;;;;;3.22;1.25;;;8.20;99.90;;;;;;5085452;28;20071;-89
2021/03/08 00:09:38;;;;;;;2.25;0.82;;;8.30;99.90;;;;;;5085228;28;20031;-89
2021/03/08 00:12:06;;;;;;;1.15;1.05;;;8.30;99.90;;;;;;5079418;28;20038;-90
2021/03/08 00:14:32;;;;;;;1.85;1.38;;;8.30;99.90;;;;;;5083574;28;20055;-89
2021/03/08 00:16:58;;;;;;;2.58;0.98;;;8.30;99.90;;;;;;5084128;28;20060;-89
2021/03/08 00:19:23;;;;;;;0.68;0.68;;;8.30;99.90;;;;;;5082746;28;20016;-89
2021/03/08 00:21:49;;;;;;;1.30;0.85;;;8.30;99.90;;;;;;5085424;28;20042;-89
2021/03/08 00:24:15;;;;;;;1.10;1.02;;;8.30;99.90;;;;;;5081108;28;20036;-89
2021/03/08 00:26:41;;;;;;;0.10;0.10;;;8.40;99.90;;;;;;5084796;28;20035;-89
2021/03/08 00:29:08;;;;;;;0.57;0.57;;;8.30;99.90;;;;;;5080815;28;20031;-89
2021/03/08 00:31:34;;;;;;;0.38;0.38;;;8.40;99.90;;;;;;5086735;28;20024;-89
2021/03/08 00:33:59;;;;;;;0.25;0.25;;;8.30;99.90;;;;;;5087147;28;20377;-88
2021/03/08 00:36:25;;;;;;;1.83;1.00;;;8.30;99.90;;;;;;5073765;28;20029;-89
2021/03/08 00:38:51;;;;;;;0.17;0.17;;;8.40;99.90;;;;;;5087692;28;20169;-88
2021/03/08 00:41:17;;;;;;;0.90;0.73;;;8.30;99.90;;;;;;5080355;28;20396;-89
2021/03/08 00:43:43;;;;;;;0.43;0.43;;;8.40;99.90;;;;;;5073205;28;20071;-90
2021/03/08 00:46:08;;;;;;;0.13;0.13;;;8.30;99.90;;;;;;5087226;28;20020;-89
2021/03/08 00:48:34;;;;;;;2.53;1.80;;;8.30;99.90;;;;;;5082926;28;20032;-89
2021/03/08 00:51:00;;;;;;;0.22;0.22;;;8.30;99.90;;;;;;5086182;28;20497;-90
2021/03/08 00:53:26;;;;;;;0.20;0.20;;;8.20;99.90;;;;;;5088161;28;20028;-89
2021/03/08 00:55:52;;;;;;;0.35;0.35;;;8.20;99.90;;;;;;5078971;28;20119;-89
2021/03/08 00:58:17;;;;;;;0.77;0.70;;;8.20;99.90;;;;;;5086593;28;20027;-89
2021/03/08 01:00:43;;;;;;;0.55;0.40;;;8.20;99.90;;;;;;5082663;28;20032;-89
2021/03/08 01:03:09;;;;;;;0.10;0.10;;;8.20;99.90;;;;;;5076414;28;20024;-89
2021/03/08 01:05:35;;;;;;;0.73;0.73;;;8.20;99.90;;;;;;5087318;28;20048;-89
2021/03/08 01:08:01;;;;;;;0.30;0.30;;;8.20;99.90;;;;;;5077378;28;20021;-89
2021/03/08 01:10:29;;;;;;;0.05;0.05;;;8.30;99.90;;;;;;5078870;28;20028;-89
2021/03/08 01:12:55;;;;;;;0.30;0.30;;;8.30;99.90;;;;;;5087191;28;20049;-88
2021/03/08 01:15:22;;;;;;;0.38;0.38;;;8.30;99.90;;;;;;5077342;28;20499;-89
2021/03/08 01:17:48;;;;;;;1.52;1.20;;;8.20;99.90;;;;;;5088697;28;20118;-89
2021/03/08 01:20:16;;;;;;;10.07;2.00;;;8.10;99.90;;;;;;5078094;28;20051;-89
2021/03/08 01:22:43;;;;;;;0.60;0.60;;;8.10;99.90;;;;;;5080497;28;20785;-90
2021/03/08 01:25:35;;;;;;;2.50;1.17;;;8.20;99.90;;;;;;5079529;28;20028;-89
2021/03/08 01:28:02;;;;;;;0.65;0.65;;;8.10;99.90;;;;;;5082767;28;20119;-88
2021/03/08 01:30:34;;;;;;;0.30;0.30;;;8.10;99.90;;;;;;5080633;28;20572;-89
2021/03/08 01:33:00;;;;;;;0.82;0.82;;;8.10;99.90;;;;;;5086520;28;20063;-90
2021/03/08 01:35:25;;;;;;;0.43;0.43;;;8.10;99.90;;;;;;5081418;28;20073;-89
2021/03/08 01:37:51;;;;;;;1.77;1.45;;;8.00;99.90;;;;;;5083496;28;20221;-89
2021/03/08 01:40:19;;;;;;;0.52;0.43;;;8.00;99.90;;;;;;5085564;28;20033;-88
2021/03/08 01:42:45;;;;;;;0.15;0.15;;;8.00;99.90;;;;;;5080775;28;20036;-88
2021/03/08 01:45:16;;;;;;;0.32;0.32;;;8.00;1.00;;;;;;5080129;28;20037;-88
2021/03/08 01:47:44;;;;;;;1.38;1.15;;;7.80;1.00;;;;;;5075896;28;20082;-88
2021/03/08 01:50:14;;;;;;;0.50;0.50;;;7.70;99.90;;;;;;5083411;28;20567;-87
2021/03/08 01:52:41;;;;;;;15.23;1.67;;;7.60;99.90;;;;;;5078413;28;20190;-89
2021/03/08 01:55:07;;;;;;;0.80;0.80;;;7.60;99.90;;;;;;5081640;28;20031;-88
2021/03/08 01:57:34;;;;;;;0.13;0.13;;;7.60;99.90;;;;;;5083231;28;20047;-88
2021/03/08 02:00:00;;;;;;;0.60;0.60;;;7.60;1.00;;;;;;5080243;28;20059;-89
2021/03/08 02:02:26;;;;;;;0.05;0.05;;;7.50;99.90;;;;;;5076995;28;20037;-89
2021/03/08 02:04:52;;;;;;;0.35;0.35;;;7.50;99.90;;;;;;5077326;28;20074;-88
2021/03/08 02:07:18;;;;;;;0.65;0.65;;;7.60;1.00;;;;;;5088555;28;20028;-88
2021/03/08 02:09:44;;;;;;;1.00;0.63;;;7.60;1.00;;;;;;5080576;28;20016;-88
2021/03/08 02:12:22;;;;;;;1.33;0.95;;;7.60;99.90;;;;;;5077848;28;20052;-89
2021/03/08 02:15:03;;;;;;;0.20;0.20;;;7.60;99.90;;;;;;5084921;28;20043;-88
2021/03/08 02:17:58;;;;;;;2.20;1.45;;;7.60;99.90;;;;;;5081922;28;20036;-88
2021/03/08 02:20:46;;;;;;;0.43;0.43;;;7.90;99.90;;;;;;5081929;28;20099;-88
2021/03/08 02:23:49;;;;;;;0.98;0.90;;;7.90;99.90;;;;;;5081814;28;20530;-88
2021/03/08 02:26:32;;;;;;;1.45;1.05;;;7.80;99.90;;;;;;5087183;28;20036;-88
2021/03/08 02:29:25;;;;;;;3.63;1.85;;;7.80;99.90;;;;;;5077127;28;20058;-88
2021/03/08 02:31:56;;;;;;;0.85;0.80;;;7.80;99.90;;;;;;5083898;28;20032;-88
2021/03/08 02:34:29;;;;;;;1.33;0.77;;;7.80;99.90;;;;;;5075459;28;20051;-89
2021/03/08 02:37:12;;;;;;;0.80;0.52;;;7.80;99.90;;;;;;5076583;28;20032;-89
2021/03/08 02:39:44;;;;;;;0.35;0.35;;;7.70;99.90;;;;;;5083239;28;20028;-88
2021/03/08 02:42:16;;;;;;;1.95;1.63;;;7.80;99.90;;;;;;5078558;28;20036;-88
2021/03/08 02:44:43;;;;;;;0.68;0.68;;;7.70;99.90;;;;;;5075868;28;20090;-88
2021/03/08 02:47:10;;;;;;;;;;;7.70;99.90;;;;;;5084051;28;20028;-88
2021/03/08 02:49:36;;;;;;;1.55;1.17;;;7.70;99.90;;;;;;5074272;28;19946;-88
2021/03/08 02:52:13;;;;;;;0.45;0.43;;;7.70;99.90;;;;;;5077784;28;20377;-87
2021/03/08 02:54:41;;;;;;;;;;;7.60;99.90;;;;;;5076619;28;20051;-88
2021/03/08 02:57:09;;;;;;;0.22;0.22;;;7.60;99.90;;;;;;5087052;28;19986;-88
2021/03/08 02:59:45;;;;;;;0.55;0.55;;;7.70;99.90;;;;;;5080922;28;20090;-89
2021/03/08 03:02:12;;;;;;;0.65;0.65;;;7.70;99.90;;;;;;5084512;28;20631;-88
2021/03/08 03:04:41;;;;;;;0.52;0.52;;;7.60;99.90;;;;;;5078518;28;20567;-88
2021/03/08 03:07:09;;;;;;;0.10;0.10;;;7.70;99.90;;;;;;5080695;28;20484;-88
2021/03/08 03:09:36;;;;;;;0.38;0.38;;;7.60;99.90;;;;;;5076326;28;20024;-88
2021/03/08 03:12:03;;;;;;;2.30;1.65;;;7.60;99.90;;;;;;5070860;28;20081;-88
2021/03/08 03:14:30;;;;;;;0.43;0.43;;;7.60;99.90;;;;;;5077048;28;20040;-87
2021/03/08 03:17:02;;;;;;;;;;;7.60;99.90;;;;;;5074046;28;20089;-89
2021/03/08 03:19:30;;;;;;;2.63;0.77;;;7.50;99.90;;;;;;5082826;28;20005;-88
2021/03/08 03:22:00;;;;;;;3.85;1.65;;;7.50;99.90;;;;;;5083798;28;20024;-88
2021/03/08 03:24:28;;;;;;;8.57;3.67;;;7.50;99.90;;;;;;5080693;28;20040;-88
2021/03/08 03:26:55;;;;;;;0.80;0.80;;;7.40;99.90;;;;;;5071426;28;20028;-88
2021/03/08 03:29:22;;;;;;;;;;;7.30;99.90;;;;;;5074671;28;20031;-88
2021/03/08 03:31:49;;;;;;;0.57;0.57;;;7.30;99.90;;;;;;5078683;28;19912;-89
2021/03/08 03:34:17;;;;;;;0.30;0.30;;;7.40;99.90;;;;;;5074281;28;20426;-88
2021/03/08 03:36:46;;;;;;;0.30;0.30;;;7.40;99.90;;;;;;5084014;28;20037;-88
2021/03/08 03:39:12;;;;;;;0.28;0.28;;;7.40;99.90;;;;;;5082822;28;20024;-88
2021/03/08 03:41:39;;;;;;;0.80;0.75;;;7.40;99.90;;;;;;5085143;28;20602;-88
2021/03/08 03:44:06;;;;;;;;;;;7.30;99.90;;;;;;5078461;28;20032;-88
2021/03/08 03:46:32;;;;;;;0.68;0.68;;;7.30;99.90;;;;;;5076826;28;19919;-88
2021/03/08 03:48:58;;;;;;;0.13;0.13;;;7.40;99.90;;;;;;5080833;28;20056;-88
2021/03/08 03:51:24;;;;;;;0.10;0.10;;;7.40;99.90;;;;;;5083723;28;20110;-88
2021/03/08 03:53:50;;;;;;;0.10;0.10;;;7.40;99.90;;;;;;5077874;28;20140;-89
2021/03/08 03:56:16;;;;;;;0.47;0.38;;;7.50;99.90;;;;;;5086776;28;20031;-88
2021/03/08 03:58:51;;;;;;;9.35;0.88;;;7.50;99.90;;;;;;5077788;28;20047;-88
2021/03/08 04:01:23;;;;;;;0.10;0.10;;;7.40;99.90;;;;;;5074577;28;20043;-88
2021/03/08 04:03:56;;;;;;;0.75;0.75;;;7.50;99.90;;;;;;5079013;28;20119;-88
2021/03/08 04:06:36;;;;;;;1.02;0.60;;;7.50;99.90;;;;;;5080288;28;20020;-88
2021/03/08 04:09:04;;;;;;;0.57;0.57;;;7.50;99.90;;;;;;5084507;28;20104;-87
2021/03/08 04:11:33;;;;;;;1.00;0.88;;;7.40;99.90;;;;;;5070553;28;20127;-88
2021/03/08 04:14:02;;;;;;;0.40;0.40;;;7.40;99.90;;;;;;5087936;28;20020;-88
2021/03/08 04:16:35;;;;;;;0.28;0.28;;;7.40;99.90;;;;;;5078777;28;20032;-88
2021/03/08 04:19:02;;;;;;;0.52;0.52;;;7.40;99.90;;;;;;5077188;28;20020;-88
2021/03/08 04:21:34;;;;;;;0.20;0.20;;;7.40;99.90;;;;;;5080940;28;20028;-88
2021/03/08 04:24:01;;;;;;;1.40;1.30;;;7.40;99.90;;;;;;5075265;28;20024;-89
2021/03/08 04:26:27;;;;;;;;;;;7.50;99.90;;;;;;5087542;28;20036;-88
2021/03/08 04:28:53;;;;;;;0.13;0.13;;;7.50;99.90;;;;;;5088050;28;19915;-89
2021/03/08 04:31:19;;;;;;;0.55;0.55;;;7.40;99.90;;;;;;5085113;28;20028;-89
2021/03/08 04:33:47;;;;;;;0.30;0.30;;;7.40;99.90;;;;;;5087013;28;20038;-89
2021/03/08 04:36:13;;;;;;;0.20;0.20;;;7.60;99.90;;;;;;5076197;28;20074;-88
2021/03/08 04:38:41;;;;;;;0.28;0.25;;;7.60;99.90;;;;;;5084431;28;20119;-89
2021/03/08 04:41:08;;;;;;;0.20;0.20;;;7.60;99.90;;;;;;5083531;28;20040;-89
2021/03/08 04:43:37;;;;;;;0.32;0.32;;;7.60;99.90;;;;;;5086414;28;20028;-89
2021/03/08 04:46:03;;;;;;;0.80;0.80;;;7.50;99.90;;;;;;5087053;28;20110;-88
2021/03/08 04:48:29;;;;;;;3.87;1.40;;;7.50;99.90;;;;;;5076030;28;20049;-88
2021/03/08 04:50:57;;;;;;;0.20;0.20;;;7.60;99.90;;;;;;5089486;28;20085;-88
2021/03/08 04:53:23;;;;;;;0.10;0.10;;;7.60;99.90;;;;;;5086126;28;20408;-88
2021/03/08 04:55:51;;;;;;;1.77;1.03;;;7.60;99.90;;;;;;5077311;28;20119;-88
2021/03/08 04:58:17;;;;;;;0.10;0.10;;;7.60;99.90;;;;;;5076977;28;20035;-88
2021/03/08 05:00:43;;;;;;;0.10;0.10;;;7.60;99.90;;;;;;5081315;28;20028;-88
2021/03/08 05:03:12;;;;;;;0.35;0.35;;;7.80;99.90;;;;;;5083081;28;20563;-87
2021/03/08 05:05:38;;;;;;;2.88;1.52;;;7.70;99.90;;;;;;5077958;28;20592;-87
2021/03/08 05:08:10;;;;;;;0.15;0.15;;;7.70;99.90;;;;;;5087433;28;20029;-87
2021/03/08 05:10:38;;;;;;;5.97;2.13;;;7.70;99.90;;;;;;5079284;28;20482;-88
2021/03/08 05:13:07;;;;;;;0.10;0.10;;;7.70;99.90;;;;;;5080189;28;20111;-88
2021/03/08 05:15:35;;;;;;;0.20;0.20;;;7.70;99.90;;;;;;5078798;28;20430;-89
2021/03/08 05:18:02;;;;;;;1.25;0.98;;;7.70;99.90;;;;;;5082869;28;20090;-87
2021/03/08 05:20:30;;;;;;;0.20;0.20;;;7.70;99.90;;;;;;5086241;28;20396;-89
2021/03/08 05:22:56;;;;;;;0.10;0.10;;;7.70;99.90;;;;;;5075880;28;20492;-89
2021/03/08 05:25:24;;;;;;;0.10;0.10;;;7.70;99.90;;;;;;5073772;28;20741;-88
2021/03/08 05:27:49;;;;;;;;;;;7.60;99.90;;;;;;5084951;28;20040;-88
2021/03/08 05:30:18;;;;;;;1.27;1.20;;;7.50;99.90;;;;;;5074087;28;19909;-88
2021/03/08 05:32:55;;;;;;;0.15;0.15;;;7.40;99.90;;;;;;5082789;28;20032;-88
2021/03/08 05:35:24;;;;;;;1.15;1.15;;;7.40;99.90;;;;;;5082098;28;20687;-88
2021/03/08 05:37:51;;;;;;;2.00;1.80;;;7.50;99.90;;;;;;5076595;28;20050;-88
2021/03/08 05:40:30;;;;;;;0.93;0.93;;;7.50;99.90;;;;;;5082804;28;20043;-88
2021/03/08 05:43:05;;;;;;;6.03;1.15;;;7.30;99.90;;;;;;5075639;28;20029;-89
2021/03/08 05:45:34;;;;;;;1.35;1.33;;;7.20;99.90;;;;;;5078601;28;21849;-91
2021/03/08 05:48:09;;;;;;;0.10;0.10;;;7.00;99.90;;;;;;5080423;28;20515;-89
2021/03/08 05:50:53;;;;;;;0.40;0.40;;;6.80;99.90;;;;;;5084645;28;20054;-87
2021/03/08 05:53:40;;;;;;;31.25;2.15;;;6.70;99.90;;;;;;5084769;28;20024;-87
2021/03/08 05:56:38;;;;;;;8.35;2.15;;;6.60;99.90;;;;;;5084954;28;20938;-88
2021/03/08 05:59:31;;;;;;;2.20;1.10;;;6.60;99.90;;;;;;5078069;28;20150;-89
2021/03/08 06:02:27;;;;;;;2.83;2.50;;;6.70;99.90;;;;;;5086192;28;20024;-89
2021/03/08 06:05:18;;;;;;;0.25;0.25;;;6.50;99.90;;;;;;5075524;28;20051;-88
2021/03/08 06:07:55;;;;;;;0.30;0.30;;;6.40;99.90;;;;;;5073494;28;20574;-87
2021/03/08 06:10:32;;;;;;;1.10;0.30;;;6.30;99.90;;;;;;5075927;28;20034;-88
2021/03/08 06:13:00;;;;;;;0.10;0.10;;;6.20;99.90;;;;;;5088870;28;20070;-88
2021/03/08 06:15:28;;;;;;;0.90;0.90;;;6.20;99.90;;;;;;5087138;28;20496;-88
2021/03/08 06:17:55;;;;;;;0.10;0.10;;;6.30;99.90;;;;;;5086800;28;20067;-86
2021/03/08 06:20:21;;;;;;;;;;;6.60;99.90;;;;;;5080604;28;20067;-88
2021/03/08 06:22:48;;;;;;;0.10;0.10;;;6.80;99.90;;;;;;5089437;28;19943;-87
2021/03/08 06:25:14;;;;;;;;;;;6.80;99.90;;;;;;5089061;28;20027;-88
2021/03/08 06:27:47;;;;;;;1.63;1.53;;;6.90;99.90;;;;;;5088508;28;19908;-88
2021/03/08 06:30:14;;;;;;;0.28;0.28;;;6.90;99.90;;;;;;5086919;28;20023;-86
2021/03/08 06:32:39;;;;;;;0.10;0.10;;;6.90;99.90;;;;;;5082259;28;20036;-87
2021/03/08 06:35:06;;;;;;;0.50;0.50;;;7.00;99.90;;;;;;5073334;28;20451;-88
2021/03/08 06:37:34;;;;;;;0.10;0.10;;;7.00;99.90;;;;;;5075156;28;20024;-86
2021/03/08 06:40:00;;;;;;;0.10;0.10;;;7.00;99.90;;;;;;5093335;28;20052;-86
2021/03/08 06:42:26;;;;;;;0.00;0.00;;;7.00;99.90;;;;;;5087908;28;20028;-86
2021/03/08 06:44:52;;;;;;;0.25;0.25;;;6.90;99.90;;;;;;5086001;28;20024;-86
2021/03/08 06:47:20;;;;;;;0.50;0.50;;;7.10;99.90;;;;;;5073612;28;20312;-86
2021/03/08 06:49:46;;;;;;;0.10;0.10;;;7.10;99.90;;;;;;5069192;28;20028;-86
2021/03/08 06:52:21;;;;;;;1.77;0.50;;;7.10;99.90;;;;;;5074084;28;20021;-88
2021/03/08 06:55:02;;;;;;;0.52;0.52;;;7.00;99.90;;;;;;5072065;28;20434;-88
2021/03/08 06:57:30;;;;;;;0.10;0.10;;;7.00;99.90;;;;;;5082259;28;20025;-88
2021/03/08 07:00:00;;;;;;;4.95;2.40;;;7.50;99.90;;;;;;5080435;28;20028;-88
2021/03/08 07:02:40;;;;;;;0.00;0.00;;;7.30;99.90;;;;;;5078757;28;20429;-87
2021/03/08 07:05:10;;;;;;;0.13;0.13;;;7.20;99.90;;;;;;5074562;28;20048;-87
2021/03/08 07:07:59;;;;;;;1.17;0.60;;;7.30;99.90;;;;;;5076987;28;20116;-87
2021/03/08 07:10:38;;;;;;;0.25;0.25;;;7.30;99.90;;;;;;5089620;28;20032;-88
2021/03/08 07:13:08;;;;;;;0.10;0.10;;;7.50;99.90;;;;;;5086019;28;20791;-87
2021/03/08 07:15:53;;;;;;;0.10;0.10;;;7.40;99.90;;;;;;5087377;28;20495;-88
2021/03/08 07:18:23;;;;;;;0.10;0.10;;;7.30;99.90;;;;;;5084136;28;20111;-89
2021/03/08 07:20:53;;;;;;;5.50;1.80;;;7.40;99.90;;;;;;5075743;28;20040;-89
2021/03/08 07:23:26;;;;;;;7.13;0.65;;;7.50;99.90;;;;;;5076803;28;20488;-89
2021/03/08 07:26:14;;;;;;;0.05;0.05;;;7.50;99.90;;;;;;5090669;28;20060;-89
2021/03/08 07:28:40;;;;;;;0.00;0.00;;;7.50;99.90;;;;;;5079096;28;20027;-88
2021/03/08 07:31:07;;;;;;;1.95;1.38;;;7.60;99.90;;;;;;5072169;28;20028;-89
2021/03/08 07:33:33;;;;;;;0.10;0.10;;;7.60;99.90;;;;;;5082991;28;20099;-88
2021/03/08 07:35:59;;;;;;;2.55;1.00;;;7.80;99.90;;;;;;5079235;28;20126;-88
2021/03/08 07:38:32;;;;;;;2.15;1.25;;;7.90;99.90;;;;;;5082413;28;20070;-84
2021/03/08 07:41:18;;;;;;;0.57;0.57;;;8.00;99.90;;;;;;5076823;28;20081;-84
2021/03/08 07:43:47;;;;;;;0.10;0.10;;;8.10;99.90;;;;;;5076982;28;20029;-85
2021/03/08 07:46:27;;;;;;;0.00;0.00;;;8.10;99.90;;;;;;5072472;28;20032;-86
2021/03/08 07:48:55;;;;;;;0.52;0.52;;;8.10;99.90;;;;;;5081822;28;20082;-85
2021/03/08 07:51:21;;;;;;;0.98;0.98;;;8.00;99.90;;;;;;5089031;28;20028;-86
2021/03/08 07:53:46;;;;;;;0.10;0.10;;;8.20;99.90;;;;;;5089904;28;20028;-87
2021/03/08 07:56:12;;;;;;;3.42;2.38;;;8.20;99.90;;;;;;5086717;28;20097;-87
2021/03/08 07:58:39;;;;;;;0.10;0.10;;;8.20;99.90;;;;;;5081360;28;20032;-87
2021/03/08 08:01:09;;;;;;;0.47;0.47;;;8.20;99.90;;;;;;5086656;28;20052;-87
2021/03/08 08:03:38;;;;;;;0.13;0.13;;;8.40;99.90;;;;;;5087864;28;20608;-87
2021/03/08 08:06:09;;;;;;;3.42;1.55;;;8.50;99.90;;;;;;5077440;28;20032;-88
2021/03/08 08:08:38;;;;;;;4.95;0.75;;;8.60;99.90;;;;;;5080334;28;20618;-87
2021/03/08 08:13:58;;;;;;;0.30;0.30;;;10.90;99.90;;;;;;5003727;23;20118;-89
2021/03/08 08:16:28;;;;;;;0.70;0.30;;;12.60;99.90;;;;;;4947938;28;20046;-88
2021/03/08 08:19:05;;;;;;;0.20;0.20;;;11.20;99.90;;;;;;4948431;28;20050;-87
2021/03/08 08:21:44;;;;;;;0.68;0.63;;;12.40;99.90;;;;;;4945178;28;20027;-87
2021/03/08 08:24:17;;;;;;;0.17;0.17;;;13.20;99.90;;;;;;4952734;28;20028;-88
2021/03/08 08:26:43;;;;;;;0.10;0.10;;;12.90;99.90;;;;;;4952631;28;20023;-88
2021/03/08 08:29:10;;;;;;;0.50;0.50;;;13.20;99.90;;;;;;4951406;28;20508;-88
2021/03/08 08:31:55;;;;;;;0.30;0.30;;;13.00;99.90;;;;;;4943169;28;20019;-87
2021/03/08 08:34:32;;;;;;;1.58;1.48;;;13.10;99.90;;;;;;4941844;29;20038;-87
2021/03/08 08:37:14;;;;;;;0.20;0.20;;;13.80;99.90;;;;;;4948799;28;20097;-87
2021/03/08 08:39:53;;;;;;;1.38;0.50;;;13.20;99.90;;;;;;4942006;28;20043;-85
2021/03/08 08:42:21;;;;;;;0.20;0.20;;;13.90;99.90;;;;;;4948458;28;20767;-88
2021/03/08 08:44:58;;;;;;;0.30;0.30;;;13.60;99.90;;;;;;4951612;28;20625;-87
2021/03/08 08:47:32;;;;;;;0.43;0.43;;;13.70;99.90;;;;;;4950213;28;20023;-87
2021/03/08 08:50:08;;;;;;;2.28;1.63;;;14.40;99.90;;;;;;4950354;28;20042;-87
2021/03/08 08:52:54;;;;;;;1.17;0.73;;;15.10;99.90;;;;;;4940579;28;20079;-87
2021/03/08 08:55:43;;;;;;;0.35;0.35;;;15.20;99.90;;;;;;4951215;28;20090;-86
2021/03/08 08:58:31;;;;;;;0.52;0.52;;;15.30;99.90;;;;;;4944658;28;20034;-87
2021/03/08 09:01:09;;;;;;;0.25;0.25;;;16.20;99.90;;;;;;4948140;28;20051;-87
2021/03/08 09:03:59;;;;;;;2.35;0.63;;;15.70;99.90;;;;;;4952365;28;20086;-86
2021/03/08 09:06:48;;;;;;;0.82;0.73;;;16.10;99.90;;;;;;4940308;28;20063;-86
2021/03/08 09:09:23;;;;;;;0.65;0.65;;;16.70;99.90;;;;;;4961484;28;20050;-87
2021/03/08 09:12:03;;;;;;;0.13;0.13;;;17.30;99.90;;;;;;4951095;28;20043;-87
2021/03/08 09:14:47;;;;;;;0.30;0.30;;;16.80;99.90;;;;;;4948070;29;20042;-88
2021/03/08 09:17:30;;;;;;;1.00;1.00;;;16.80;99.90;;;;;;4942834;28;20031;-87
2021/03/08 09:19:56;;;;;;;0.65;0.65;;;18.30;99.90;;;;;;4951603;28;20031;-86
2021/03/08 09:22:28;;;;;;;0.20;0.20;;;18.10;99.90;;;;;;4951948;28;20369;-90
2021/03/08 09:24:55;;;;;;;0.45;0.45;;;17.00;99.90;;;;;;4951453;28;20071;-89
2021/03/08 09:27:32;;;;;;;0.40;0.40;;;18.20;99.90;;;;;;4939018;28;20031;-89
2021/03/08 09:30:06;;;;;;;;;;;17.30;99.90;;;;;;4939757;28;20023;-89
2021/03/08 09:32:32;;;;;;;0.32;0.32;;;17.20;99.90;;;;;;4936014;29;20279;-91
2021/03/08 09:35:07;;;;;;;0.60;0.60;;;18.10;99.90;;;;;;4943328;28;20444;-88
2021/03/08 09:37:34;;;;;;;0.30;0.30;;;17.20;99.90;;;;;;4937940;29;20502;-88
2021/03/08 09:40:02;;;;;;;0.20;0.20;;;17.00;99.90;;;;;;4951377;28;20408;-88
2021/03/08 09:42:36;;;;;;;2.00;1.85;;;17.40;99.90;;;;;;4949599;28;20166;-88
2021/03/08 09:45:14;;;;;;;3.03;1.58;;;16.40;99.90;;;;;;4951019;28;20031;-88
2021/03/08 09:47:40;;;;;;;0.60;0.60;;;18.20;99.90;;;;;;4956029;28;20035;-88
2021/03/08 09:50:08;;;;;;;0.45;0.43;;;18.90;99.90;;;;;;4950651;28;20871;-88
2021/03/08 09:52:36;;;;;;;0.30;0.30;;;21.60;99.90;;;;;;4949421;28;20027;-88
2021/03/08 09:55:08;;;;;;;2.92;1.45;;;20.70;99.90;;;;;;4951052;28;20074;-88
2021/03/08 09:57:35;;;;;;;2.17;1.00;;;19.10;99.90;;;;;;4948884;28;20118;-88
2021/03/08 10:00:04;;;;;;;0.70;0.70;;;19.40;99.90;;;;;;4949535;29;20632;-88
2021/03/08 10:02:30;;;;;;;0.35;0.35;;;21.10;99.90;;;;;;4950545;28;20031;-88
2021/03/08 10:04:56;;;;;;;16.77;4.43;;;21.60;99.90;;;;;;4950716;28;20026;-88
2021/03/08 10:07:23;;;;;;;1.30;1.03;;;23.60;99.90;;;;;;4950658;28;20061;-87
2021/03/08 10:09:49;;;;;;;0.20;0.20;;;21.90;99.90;;;;;;4949981;28;20687;-88
2021/03/08 10:12:23;;;;;;;0.80;0.80;;;20.60;99.90;;;;;;4949067;28;20045;-87
2021/03/08 10:14:58;;;;;;;2.67;1.80;;;20.40;99.90;;;;;;4950604;29;20034;-87
2021/03/08 10:17:24;;;;;;;2.33;0.93;;;20.10;99.90;;;;;;4950401;28;20118;-88
2021/03/08 10:19:56;;;;;;;0.30;0.30;;;21.90;99.90;;;;;;4950355;28;20171;-88
2021/03/08 10:22:39;;;;;;;0.20;0.20;;;23.60;99.90;;;;;;4950408;28;20838;-88
2021/03/08 10:25:28;;;;;;;0.47;0.47;;;25.90;99.90;;;;;;4948992;28;20050;-88
2021/03/08 10:28:00;;;;;;;0.40;0.40;;;23.90;99.90;;;;;;4950417;28;20023;-88
2021/03/08 10:30:32;;;;;;;0.50;0.50;;;24.00;99.90;;;;;;4950021;28;20026;-88
2021/03/08 10:33:18;;;;;;;0.50;0.50;;;21.70;99.90;;;;;;4965230;28;20034;-88
2021/03/08 10:35:46;;;;;;;0.60;0.60;;;20.60;99.90;;;;;;4949830;28;20162;-88
2021/03/08 10:38:13;;;;;;;0.50;0.50;;;21.10;99.90;;;;;;4949893;28;20060;-88
2021/03/08 10:40:41;;;;;;;2.47;1.02;;;23.40;99.90;;;;;;4964152;28;20028;-87
2021/03/08 10:43:09;;;;;;;0.20;0.20;;;19.30;99.90;;;;;;4950631;28;20064;-88
2021/03/08 10:45:35;;;;;;;0.80;0.80;;;18.20;99.90;;;;;;4949729;28;20063;-88
2021/03/08 10:48:12;;;;;;;0.55;0.43;;;22.50;99.90;;;;;;4948931;28;20066;-88
2021/03/08 10:50:45;;;;;;;0.10;0.10;;;23.70;99.90;;;;;;4949864;28;20027;-88
2021/03/08 10:53:12;;;;;;;0.38;0.38;;;24.20;99.90;;;;;;4950138;28;20015;-88
2021/03/08 10:55:40;;;;;;;0.38;0.38;;;22.60;99.90;;;;;;4949858;28;20065;-88
2021/03/08 10:58:06;;;;;;;1.38;0.25;;;20.90;99.90;;;;;;4948957;28;20035;-88
2021/03/08 11:00:33;;;;;;;0.30;0.30;;;20.30;99.90;;;;;;4949570;28;20043;-88
2021/03/08 11:03:00;;;;;;;0.85;0.85;;;20.40;99.90;;;;;;4949644;28;20023;-88
2021/03/08 11:05:30;;;;;;;1.30;0.52;;;19.30;99.90;;;;;;4949829;28;20106;-89
2021/03/08 11:07:57;;;;;;;2.47;1.67;;;18.10;99.90;;;;;;4949260;28;20015;-88
2021/03/08 11:10:37;;;;;;;1.98;1.73;;;19.40;99.90;;;;;;4948126;28;20430;-88
2021/03/08 11:13:08;;;;;;;5.82;1.98;;;19.30;99.90;;;;;;4938197;28;20172;-88
2021/03/08 11:15:35;;;;;;;0.40;0.40;;;18.30;99.90;;;;;;4949720;28;20035;-88
2021/03/08 11:18:02;;;;;;;0.10;0.10;;;18.30;99.90;;;;;;4947777;28;20027;-88
2021/03/08 11:20:31;;;;;;;0.43;0.43;;;17.40;99.90;;;;;;4945426;28;20848;-88
2021/03/08 11:23:08;;;;;;;0.15;0.15;;;15.90;99.90;;;;;;4941125;29;20133;-89
2021/03/08 11:25:36;;;;;;;0.40;0.40;;;16.40;99.90;;;;;;4951862;29;20058;-89
2021/03/08 11:28:07;;;;;;;0.68;0.68;;;16.20;99.90;;;;;;4953657;28;20127;-89
2021/03/08 11:30:34;;;;;;;1.35;1.00;;;16.80;99.90;;;;;;4950757;28;20028;-89
2021/03/08 11:33:00;;;;;;;;;;;16.80;99.90;;;;;;4952363;28;20093;-88
2021/03/08 11:35:29;;;;;;;0.20;0.20;;;15.60;99.90;;;;;;4949361;28;19914;-90
2021/03/08 11:38:02;;;;;;;5.57;0.68;;;15.40;99.90;;;;;;4951090;28;20644;-88
2021/03/08 11:40:29;;;;;;;0.20;0.20;;;14.90;99.90;;;;;;4947916;28;20035;-88
2021/03/08 11:42:56;;;;;;;0.45;0.45;;;14.50;99.90;;;;;;4946894;28;20047;-87
2021/03/08 11:45:22;;;;;;;;;;;18.30;99.90;;;;;;4948190;28;20061;-87
2021/03/08 11:47:56;;;;;;;1.27;1.00;;;16.60;99.90;;;;;;4945889;28;19910;-90
2021/03/08 11:50:23;;;;;;;0.10;0.10;;;15.50;99.90;;;;;;4944911;28;20039;-90
2021/03/08 11:52:50;;;;;;;0.70;0.70;;;16.10;99.90;;;;;;4941597;28;20062;-88
2021/03/08 11:55:17;;;;;;;0.13;0.13;;;16.50;99.90;;;;;;4943900;29;20110;-87
2021/03/08 11:57:44;;;;;;;0.22;0.22;;;16.10;99.90;;;;;;4944273;28;20047;-90
2021/03/08 12:00:11;;;;;;;2.63;2.05;;;15.40;99.90;;;;;;4943194;28;20090;-89
2021/03/08 12:02:36;;;;;;;1.85;1.17;;;14.70;99.90;;;;;;4949468;28;20057;-92
2021/03/08 12:05:03;;;;;;;0.93;0.80;;;15.40;99.90;;;;;;4953681;28;20511;-91
2021/03/08 12:07:28;;;;;;;0.82;0.82;;;15.20;99.90;;;;;;4953776;28;20031;-92
2021/03/08 12:09:55;;;;;;;11.03;1.43;;;16.60;99.90;;;;;;4952820;28;20522;-92
2021/03/08 12:12:22;;;;;;;19.98;3.20;;;17.30;99.90;;;;;;4948148;28;20047;-92
2021/03/08 12:14:47;;;;;;;0.43;0.37;;;17.30;99.90;;;;;;4950953;28;20033;-91
2021/03/08 12:17:13;;;;;;;0.63;0.63;;;17.00;99.90;;;;;;4947915;29;20122;-92
2021/03/08 12:19:39;;;;;;;6.27;2.70;;;17.40;99.90;;;;;;4939604;28;20067;-92
2021/03/08 12:22:05;;;;;;;0.93;0.40;;;18.00;99.90;;;;;;4951791;28;20027;-92
2021/03/08 12:24:31;;;;;;;0.30;0.30;;;18.10;99.90;;;;;;4947156;29;20529;-91
2021/03/08 12:26:57;;;;;;;0.43;0.38;;;16.90;99.90;;;;;;4939518;28;20495;-92
2021/03/08 12:29:23;;;;;;;0.37;0.37;;;16.50;99.90;;;;;;4952606;29;20038;-92
2021/03/08 12:31:49;;;;;;;0.47;0.47;;;16.60;99.90;;;;;;4949596;28;20034;-92
2021/03/08 12:34:15;;;;;;;0.17;0.17;;;17.30;99.90;;;;;;4945916;28;20031;-92
2021/03/08 12:36:41;;;;;;;2.80;1.65;;;17.50;99.90;;;;;;4949238;28;20443;-92
2021/03/08 12:39:07;;;;;;;0.77;0.77;;;16.20;99.90;;;;;;4949929;28;20034;-92
2021/03/08 12:41:34;;;;;;;0.40;0.40;;;15.70;99.90;;;;;;4955581;28;20122;-92
2021/03/08 12:44:00;;;;;;;0.40;0.40;;;15.70;99.90;;;;;;4965978;28;20040;-92
2021/03/08 12:46:26;;;;;;;0.53;0.53;;;15.30;99.90;;;;;;4952244;28;20038;-92
2021/03/08 12:48:53;;;;;;;1.42;0.60;;;15.20;99.90;;;;;;4950256;28;20028;-91
2021/03/08 12:51:22;;;;;;;;;;;15.40;99.90;;;;;;4946859;29;20039;-92
2021/03/08 12:53:49;;;;;;;0.15;0.15;;;15.80;99.90;;;;;;4949715;28;19910;-92
2021/03/08 12:56:19;;;;;;;1.05;0.52;;;15.50;99.90;;;;;;4947466;28;20031;-92
2021/03/08 12:58:45;;;;;;;3.03;1.65;;;15.90;99.90;;;;;;4932585;29;20416;-91
2021/03/08 13:01:11;;;;;;;0.90;0.50;;;15.70;99.90;;;;;;4944661;28;20050;-93
2021/03/08 13:03:39;;;;;;;0.10;0.10;;;15.70;99.90;;;;;;4948915;29;20027;-93
2021/03/08 13:06:06;;;;;;;2.60;1.75;;;16.10;99.90;;;;;;4948372;28;20131;-92
2021/03/08 13:08:34;;;;;;;14.77;3.43;;;16.00;99.90;;;;;;4947802;28;20705;-93
2021/03/08 13:11:01;;;;;;;0.63;0.63;;;15.80;99.90;;;;;;4948728;28;20027;-92
2021/03/08 13:13:26;;;;;;;2.40;1.40;;;15.70;99.90;;;;;;4951107;28;20036;-93
2021/03/08 13:15:52;;;;;;;0.90;0.90;;;15.50;99.90;;;;;;4952908;28;20050;-93